sensor_id;sensor_type;location;lat;lon;timestamp;temperature;humidity
2579;DHT22;1299;48.282;14.398;2024-01-30T00:02:15;-0.60;99.90
2579;DHT22;1299;48.282;14.398;2024-01-30T00:11:25;-0.50;99.90
2579;DHT22;1299;48.282;14.398;2024-01-30T00:13:57;-0.50;99.90
2579;DHT22;1299;48.282;14.398;2024-01-30T00:19:52;-0.60;99.90
2579;DHT22;1299;48.282;14.398;2024-01-30T00:28:39;-0.60;99.90
2579;DHT22;1299;48.282;14.398;2024-01-30T00:31:42;-0.60;99.90
2579;DHT22;1299;48.282;14.398;2024-01-30T00:44:48;-0.80;99.90
2579;DHT22;1299;48.282;14.398;2024-01-30T00:50:36;-0.80;99.90
2579;DHT22;1299;48.282;14.398;2024-01-30T00:56:09;-0.90;99.90
2579;DHT22;1299;48.282;14.398;2024-01-30T00:59:09;-1.00;99.90
2579;DHT22;1299;48.282;14.398;2024-01-30T01:01:48;-1.10;99.90
2579;DHT22;1299;48.282;14.398;2024-01-30T01:04:35;-1.10;99.90
2579;DHT22;1299;48.282;14.398;2024-01-30T01:20:16;-1.10;99.90
2579;DHT22;1299;48.282;14.398;2024-01-30T01:26:31;-1.20;99.90
2579;DHT22;1299;48.282;14.398;2024-01-30T01:32:11;-1.20;99.90
2579;DHT22;1299;48.282;14.398;2024-01-30T01:35:09;-1.20;99.90
2579;DHT22;1299;48.282;14.398;2024-01-30T01:37:38;-1.30;99.90
2579;DHT22;1299;48.282;14.398;2024-01-30T01:40:24;-1.30;99.90
2579;DHT22;1299;48.282;14.398;2024-01-30T01:43:13;-1.30;99.90
2579;DHT22;1299;48.282;14.398;2024-01-30T01:56:25;-1.40;99.90
2579;DHT22;1299;48.282;14.398;2024-01-30T01:59:05;-1.30;99.90
2579;DHT22;1299;48.282;14.398;2024-01-30T02:01:54;-1.30;99.90
2579;DHT22;1299;48.282;14.398;2024-01-30T02:04:45;-1.40;99.90
2579;DHT22;1299;48.282;14.398;2024-01-30T02:10:25;-1.40;99.90
2579;DHT22;1299;48.282;14.398;2024-01-30T02:16:14;-1.40;99.90
2579;DHT22;1299;48.282;14.398;2024-01-30T02:18:58;-1.30;99.90
2579;DHT22;1299;48.282;14.398;2024-01-30T02:21:29;-1.40;99.90
2579;DHT22;1299;48.282;14.398;2024-01-30T02:24:13;-1.40;99.90
2579;DHT22;1299;48.282;14.398;2024-01-30T02:26:46;-1.40;99.90
2579;DHT22;1299;48.282;14.398;2024-01-30T02:29:12;-1.30;99.90
2579;DHT22;1299;48.282;14.398;2024-01-30T02:31:40;-1.30;99.90
2579;DHT22;1299;48.282;14.398;2024-01-30T02:34:06;-1.40;99.90
2579;DHT22;1299;48.282;14.398;2024-01-30T02:37:03;-1.40;99.90
2579;DHT22;1299;48.282;14.398;2024-01-30T02:39:30;-1.40;99.90
2579;DHT22;1299;48.282;14.398;2024-01-30T02:55:36;-1.50;99.90
2579;DHT22;1299;48.282;14.398;2024-01-30T03:01:25;-1.60;99.90
2579;DHT22;1299;48.282;14.398;2024-01-30T03:07:38;-1.50;99.90
2579;DHT22;1299;48.282;14.398;2024-01-30T03:13:56;-1.40;99.90
2579;DHT22;1299;48.282;14.398;2024-01-30T03:52:19;-1.40;99.90
2579;DHT22;1299;48.282;14.398;2024-01-30T04:19:55;-1.30;99.90
2579;DHT22;1299;48.282;14.398;2024-01-30T04:39:34;-1.50;99.90
2579;DHT22;1299;48.282;14.398;2024-01-30T04:42:02;-1.40;99.90
2579;DHT22;1299;48.282;14.398;2024-01-30T04:44:29;-1.30;99.90
2579;DHT22;1299;48.282;14.398;2024-01-30T04:47:19;-1.30;99.90
2579;DHT22;1299;48.282;14.398;2024-01-30T04:56:05;-1.40;99.90
2579;DHT22;1299;48.282;14.398;2024-01-30T05:05:03;-1.40;99.90
2579;DHT22;1299;48.282;14.398;2024-01-30T05:07:31;-1.40;99.90
2579;DHT22;1299;48.282;14.398;2024-01-30T05:10:13;-1.40;99.90
2579;DHT22;1299;48.282;14.398;2024-01-30T05:12:42;-1.40;99.90
2579;DHT22;1299;48.282;14.398;2024-01-30T05:15:15;-1.40;99.90
2579;DHT22;1299;48.282;14.398;2024-01-30T05:17:43;-1.40;99.90
2579;DHT22;1299;48.282;14.398;2024-01-30T05:20:20;-1.40;99.90
2579;DHT22;1299;48.282;14.398;2024-01-30T05:22:47;-1.30;99.90
2579;DHT22;1299;48.282;14.398;2024-01-30T05:25:28;-1.30;99.90
2579;DHT22;1299;48.282;14.398;2024-01-30T05:28:01;-1.40;99.90
2579;DHT22;1299;48.282;14.398;2024-01-30T05:30:34;-1.40;99.90
2579;DHT22;1299;48.282;14.398;2024-01-30T05:33:04;-1.40;99.90
2579;DHT22;1299;48.282;14.398;2024-01-30T05:35:31;-1.40;99.90
2579;DHT22;1299;48.282;14.398;2024-01-30T05:38:01;-1.30;99.90
2579;DHT22;1299;48.282;14.398;2024-01-30T05:40:44;-1.30;99.90
2579;DHT22;1299;48.282;14.398;2024-01-30T05:43:12;-1.40;99.90
2579;DHT22;1299;48.282;14.398;2024-01-30T05:45:54;-1.40;99.90
2579;DHT22;1299;48.282;14.398;2024-01-30T05:48:44;-1.40;99.90
2579;DHT22;1299;48.282;14.398;2024-01-30T05:51:12;-1.40;99.90
2579;DHT22;1299;48.282;14.398;2024-01-30T06:00:34;-1.20;99.90
2579;DHT22;1299;48.282;14.398;2024-01-30T06:13:29;-1.20;99.90
2579;DHT22;1299;48.282;14.398;2024-01-30T06:16:00;-1.30;99.90
2579;DHT22;1299;48.282;14.398;2024-01-30T06:18:52;-1.30;99.90
2579;DHT22;1299;48.282;14.398;2024-01-30T06:24:44;-1.20;99.90
2579;DHT22;1299;48.282;14.398;2024-01-30T06:30:41;-1.20;99.90
2579;DHT22;1299;48.282;14.398;2024-01-30T06:36:31;-1.40;99.90
2579;DHT22;1299;48.282;14.398;2024-01-30T06:45:42;-1.30;99.90
2579;DHT22;1299;48.282;14.398;2024-01-30T06:51:32;-1.50;99.90
2579;DHT22;1299;48.282;14.398;2024-01-30T06:53:59;-1.40;99.90
2579;DHT22;1299;48.282;14.398;2024-01-30T06:56:28;-1.40;99.90
2579;DHT22;1299;48.282;14.398;2024-01-30T06:59:01;-1.40;99.90
2579;DHT22;1299;48.282;14.398;2024-01-30T07:01:31;-1.40;99.90
2579;DHT22;1299;48.282;14.398;2024-01-30T07:04:13;-1.40;99.90
2579;DHT22;1299;48.282;14.398;2024-01-30T07:06:51;-1.30;99.90
2579;DHT22;1299;48.282;14.398;2024-01-30T07:09:18;-1.20;99.90
2579;DHT22;1299;48.282;14.398;2024-01-30T07:11:46;-1.80;99.90
2579;DHT22;1299;48.282;14.398;2024-01-30T07:14:15;-1.90;99.90
2579;DHT22;1299;48.282;14.398;2024-01-30T07:16:43;-2.00;99.90
2579;DHT22;1299;48.282;14.398;2024-01-30T07:19:10;-1.80;99.90
2579;DHT22;1299;48.282;14.398;2024-01-30T07:21:38;-1.60;99.90
2579;DHT22;1299;48.282;14.398;2024-01-30T07:24:13;-1.30;99.90
2579;DHT22;1299;48.282;14.398;2024-01-30T07:26:47;-1.30;99.90
2579;DHT22;1299;48.282;14.398;2024-01-30T07:29:20;-1.20;99.90
2579;DHT22;1299;48.282;14.398;2024-01-30T07:31:48;-1.10;99.90
2579;DHT22;1299;48.282;14.398;2024-01-30T07:34:16;-1.10;99.90
2579;DHT22;1299;48.282;14.398;2024-01-30T07:36:47;-1.00;99.90
2579;DHT22;1299;48.282;14.398;2024-01-30T07:42:20;-1.50;99.90
2579;DHT22;1299;48.282;14.398;2024-01-30T07:45:02;-1.10;99.90
2579;DHT22;1299;48.282;14.398;2024-01-30T07:50:56;-0.70;99.90
2579;DHT22;1299;48.282;14.398;2024-01-30T07:53:23;-0.60;99.90
2579;DHT22;1299;48.282;14.398;2024-01-30T07:56:03;-0.40;99.90
2579;DHT22;1299;48.282;14.398;2024-01-30T07:58:58;-0.30;99.90
2579;DHT22;1299;48.282;14.398;2024-01-30T08:01:31;-0.20;99.90
2579;DHT22;1299;48.282;14.398;2024-01-30T08:03:58;-0.10;99.90
2579;DHT22;1299;48.282;14.398;2024-01-30T08:06:27;0.00;99.90
2579;DHT22;1299;48.282;14.398;2024-01-30T08:08:57;0.10;99.90
2579;DHT22;1299;48.282;14.398;2024-01-30T08:11:25;0.00;99.90
2579;DHT22;1299;48.282;14.398;2024-01-30T08:13:52;0.10;99.90
2579;DHT22;1299;48.282;14.398;2024-01-30T08:16:35;0.20;99.90
2579;DHT22;1299;48.282;14.398;2024-01-30T08:19:02;0.30;99.90
2579;DHT22;1299;48.282;14.398;2024-01-30T08:21:31;0.40;99.90
2579;DHT22;1299;48.282;14.398;2024-01-30T08:24:02;0.50;99.90
2579;DHT22;1299;48.282;14.398;2024-01-30T08:26:34;0.60;99.90
2579;DHT22;1299;48.282;14.398;2024-01-30T08:29:03;0.80;99.90
2579;DHT22;1299;48.282;14.398;2024-01-30T08:31:31;0.90;99.90
2579;DHT22;1299;48.282;14.398;2024-01-30T08:34:05;0.90;99.90
2579;DHT22;1299;48.282;14.398;2024-01-30T08:36:34;1.00;99.90
2579;DHT22;1299;48.282;14.398;2024-01-30T08:39:09;0.90;99.90
2579;DHT22;1299;48.282;14.398;2024-01-30T08:41:35;0.90;99.90
2579;DHT22;1299;48.282;14.398;2024-01-30T08:44:03;0.90;99.90
2579;DHT22;1299;48.282;14.398;2024-01-30T08:46:39;0.90;99.90
2579;DHT22;1299;48.282;14.398;2024-01-30T08:49:26;0.90;99.90
2579;DHT22;1299;48.282;14.398;2024-01-30T08:51:53;0.70;99.90
2579;DHT22;1299;48.282;14.398;2024-01-30T08:54:20;0.90;99.90
2579;DHT22;1299;48.282;14.398;2024-01-30T08:56:55;0.60;99.90
2579;DHT22;1299;48.282;14.398;2024-01-30T08:59:45;0.40;99.90
2579;DHT22;1299;48.282;14.398;2024-01-30T09:02:19;0.40;99.90
2579;DHT22;1299;48.282;14.398;2024-01-30T09:04:47;0.30;99.90
2579;DHT22;1299;48.282;14.398;2024-01-30T09:07:31;0.50;99.90
2579;DHT22;1299;48.282;14.398;2024-01-30T09:10:14;0.30;99.90
2579;DHT22;1299;48.282;14.398;2024-01-30T09:12:41;0.20;99.90
2579;DHT22;1299;48.282;14.398;2024-01-30T09:15:09;0.10;99.90
2579;DHT22;1299;48.282;14.398;2024-01-30T09:17:36;-0.10;99.90
2579;DHT22;1299;48.282;14.398;2024-01-30T09:20:12;0.10;99.90
2579;DHT22;1299;48.282;14.398;2024-01-30T09:22:46;0.00;99.90
2579;DHT22;1299;48.282;14.398;2024-01-30T09:25:15;0.10;99.90
2579;DHT22;1299;48.282;14.398;2024-01-30T09:27:48;0.20;99.90
2579;DHT22;1299;48.282;14.398;2024-01-30T09:30:21;0.40;99.90
2579;DHT22;1299;48.282;14.398;2024-01-30T09:32:49;0.10;99.90
2579;DHT22;1299;48.282;14.398;2024-01-30T09:35:19;0.20;99.90
2579;DHT22;1299;48.282;14.398;2024-01-30T09:37:55;0.60;99.90
2579;DHT22;1299;48.282;14.398;2024-01-30T09:40:40;0.20;99.90
2579;DHT22;1299;48.282;14.398;2024-01-30T09:43:17;0.40;99.90
2579;DHT22;1299;48.282;14.398;2024-01-30T09:49:10;0.70;99.90
2579;DHT22;1299;48.282;14.398;2024-01-30T09:55:31;0.30;99.90
2579;DHT22;1299;48.282;14.398;2024-01-30T09:58:18;0.20;99.90
2579;DHT22;1299;48.282;14.398;2024-01-30T10:07:30;0.20;99.90
2579;DHT22;1299;48.282;14.398;2024-01-30T10:13:20;0.20;99.90
2579;DHT22;1299;48.282;14.398;2024-01-30T10:15:47;0.20;99.90
2579;DHT22;1299;48.282;14.398;2024-01-30T10:18:22;0.40;99.90
2579;DHT22;1299;48.282;14.398;2024-01-30T10:20:51;0.30;99.90
2579;DHT22;1299;48.282;14.398;2024-01-30T10:23:18;0.50;99.90
2579;DHT22;1299;48.282;14.398;2024-01-30T10:25:58;0.80;99.90
2579;DHT22;1299;48.282;14.398;2024-01-30T10:28:32;0.30;99.90
2579;DHT22;1299;48.282;14.398;2024-01-30T10:31:04;0.30;99.90
2579;DHT22;1299;48.282;14.398;2024-01-30T10:33:35;0.20;99.90
2579;DHT22;1299;48.282;14.398;2024-01-30T10:36:05;0.40;99.90
2579;DHT22;1299;48.282;14.398;2024-01-30T10:38:45;0.50;99.90
2579;DHT22;1299;48.282;14.398;2024-01-30T10:41:15;0.70;99.90
2579;DHT22;1299;48.282;14.398;2024-01-30T10:43:57;0.70;99.90
2579;DHT22;1299;48.282;14.398;2024-01-30T10:46:31;0.10;99.90
2579;DHT22;1299;48.282;14.398;2024-01-30T10:49:00;0.20;99.90
2579;DHT22;1299;48.282;14.398;2024-01-30T10:51:34;0.20;99.90
2579;DHT22;1299;48.282;14.398;2024-01-30T10:54:10;-0.10;99.90
2579;DHT22;1299;48.282;14.398;2024-01-30T10:56:50;-0.10;99.90
2579;DHT22;1299;48.282;14.398;2024-01-30T10:59:22;0.20;99.90
2579;DHT22;1299;48.282;14.398;2024-01-30T11:01:55;0.00;99.90
2579;DHT22;1299;48.282;14.398;2024-01-30T11:04:23;0.10;99.90
2579;DHT22;1299;48.282;14.398;2024-01-30T11:06:52;0.20;99.90
2579;DHT22;1299;48.282;14.398;2024-01-30T11:09:20;0.50;99.90
2579;DHT22;1299;48.282;14.398;2024-01-30T11:11:52;0.90;99.90
2579;DHT22;1299;48.282;14.398;2024-01-30T11:14:33;1.00;99.90
2579;DHT22;1299;48.282;14.398;2024-01-30T11:17:06;1.00;99.90
2579;DHT22;1299;48.282;14.398;2024-01-30T11:19:37;0.70;99.90
2579;DHT22;1299;48.282;14.398;2024-01-30T11:22:06;0.90;99.90
2579;DHT22;1299;48.282;14.398;2024-01-30T11:24:39;1.30;99.90
2579;DHT22;1299;48.282;14.398;2024-01-30T11:27:17;1.50;99.90
2579;DHT22;1299;48.282;14.398;2024-01-30T11:33:14;1.70;99.90
2579;DHT22;1299;48.282;14.398;2024-01-30T11:35:43;1.50;99.90
2579;DHT22;1299;48.282;14.398;2024-01-30T11:38:14;1.20;99.90
2579;DHT22;1299;48.282;14.398;2024-01-30T11:40:43;0.90;99.90
2579;DHT22;1299;48.282;14.398;2024-01-30T11:43:10;0.80;99.90
2579;DHT22;1299;48.282;14.398;2024-01-30T11:45:38;0.40;99.90
2579;DHT22;1299;48.282;14.398;2024-01-30T11:48:07;0.70;99.90
2579;DHT22;1299;48.282;14.398;2024-01-30T11:50:40;0.80;99.90
2579;DHT22;1299;48.282;14.398;2024-01-30T11:53:07;1.10;99.90
2579;DHT22;1299;48.282;14.398;2024-01-30T11:55:34;1.50;99.90
2579;DHT22;1299;48.282;14.398;2024-01-30T11:58:07;1.70;99.90
2579;DHT22;1299;48.282;14.398;2024-01-30T12:00:34;1.90;99.90
2579;DHT22;1299;48.282;14.398;2024-01-30T12:03:03;2.00;99.90
2579;DHT22;1299;48.282;14.398;2024-01-30T12:05:32;2.10;99.90
2579;DHT22;1299;48.282;14.398;2024-01-30T12:08:07;2.10;99.90
2579;DHT22;1299;48.282;14.398;2024-01-30T12:10:40;1.70;99.90
2579;DHT22;1299;48.282;14.398;2024-01-30T12:13:22;1.30;99.90
2579;DHT22;1299;48.282;14.398;2024-01-30T12:15:58;1.20;99.90
2579;DHT22;1299;48.282;14.398;2024-01-30T12:18:48;0.90;99.90
2579;DHT22;1299;48.282;14.398;2024-01-30T12:24:38;0.90;99.90
2579;DHT22;1299;48.282;14.398;2024-01-30T12:27:15;1.20;99.90
2579;DHT22;1299;48.282;14.398;2024-01-30T12:30:19;1.40;99.90
2579;DHT22;1299;48.282;14.398;2024-01-30T12:32:49;1.70;99.90
2579;DHT22;1299;48.282;14.398;2024-01-30T12:35:17;1.20;99.90
2579;DHT22;1299;48.282;14.398;2024-01-30T12:37:47;1.60;99.90
2579;DHT22;1299;48.282;14.398;2024-01-30T12:40:25;1.10;99.90
2579;DHT22;1299;48.282;14.398;2024-01-30T12:43:06;1.20;99.90
2579;DHT22;1299;48.282;14.398;2024-01-30T12:45:35;1.20;99.90
2579;DHT22;1299;48.282;14.398;2024-01-30T12:48:05;1.00;99.90
2579;DHT22;1299;48.282;14.398;2024-01-30T12:50:39;1.10;99.90
2579;DHT22;1299;48.282;14.398;2024-01-30T12:53:06;1.00;99.90
2579;DHT22;1299;48.282;14.398;2024-01-30T12:55:34;0.80;99.90
2579;DHT22;1299;48.282;14.398;2024-01-30T12:58:14;1.10;99.90
2579;DHT22;1299;48.282;14.398;2024-01-30T13:00:48;1.10;99.90
2579;DHT22;1299;48.282;14.398;2024-01-30T13:03:19;0.90;99.90
2579;DHT22;1299;48.282;14.398;2024-01-30T13:05:46;0.90;99.90
2579;DHT22;1299;48.282;14.398;2024-01-30T13:08:14;0.80;99.90
2579;DHT22;1299;48.282;14.398;2024-01-30T13:10:44;1.10;99.90
2579;DHT22;1299;48.282;14.398;2024-01-30T13:13:24;0.90;99.90
2579;DHT22;1299;48.282;14.398;2024-01-30T13:15:58;0.90;99.90
2579;DHT22;1299;48.282;14.398;2024-01-30T13:18:30;0.80;99.90
2579;DHT22;1299;48.282;14.398;2024-01-30T13:21:03;0.90;99.90
2579;DHT22;1299;48.282;14.398;2024-01-30T13:23:36;0.90;99.90
2579;DHT22;1299;48.282;14.398;2024-01-30T13:26:06;0.90;99.90
2579;DHT22;1299;48.282;14.398;2024-01-30T13:28:44;0.90;99.90
2579;DHT22;1299;48.282;14.398;2024-01-30T13:31:11;0.80;99.90
2579;DHT22;1299;48.282;14.398;2024-01-30T13:33:40;0.90;99.90
2579;DHT22;1299;48.282;14.398;2024-01-30T13:36:22;1.10;99.90
2579;DHT22;1299;48.282;14.398;2024-01-30T13:38:49;1.20;99.90
2579;DHT22;1299;48.282;14.398;2024-01-30T13:41:17;1.40;99.90
2579;DHT22;1299;48.282;14.398;2024-01-30T13:43:44;1.20;99.90
2579;DHT22;1299;48.282;14.398;2024-01-30T13:46:11;1.20;99.90
2579;DHT22;1299;48.282;14.398;2024-01-30T13:48:38;0.90;99.90
2579;DHT22;1299;48.282;14.398;2024-01-30T13:51:07;0.80;99.90
2579;DHT22;1299;48.282;14.398;2024-01-30T13:53:36;1.10;99.90
2579;DHT22;1299;48.282;14.398;2024-01-30T13:56:10;1.00;99.90
2579;DHT22;1299;48.282;14.398;2024-01-30T13:58:39;1.30;99.90
2579;DHT22;1299;48.282;14.398;2024-01-30T14:01:08;1.00;99.90
2579;DHT22;1299;48.282;14.398;2024-01-30T14:03:39;0.90;99.90
2579;DHT22;1299;48.282;14.398;2024-01-30T14:06:08;0.90;99.90
2579;DHT22;1299;48.282;14.398;2024-01-30T14:08:35;0.80;99.90
2579;DHT22;1299;48.282;14.398;2024-01-30T14:11:19;0.60;99.90
2579;DHT22;1299;48.282;14.398;2024-01-30T14:13:48;0.60;99.90
2579;DHT22;1299;48.282;14.398;2024-01-30T14:19:54;1.00;99.90
2579;DHT22;1299;48.282;14.398;2024-01-30T14:22:30;1.10;99.90
2579;DHT22;1299;48.282;14.398;2024-01-30T14:25:03;1.20;99.90
2579;DHT22;1299;48.282;14.398;2024-01-30T14:27:31;1.20;99.90
2579;DHT22;1299;48.282;14.398;2024-01-30T14:33:33;1.00;99.90
2579;DHT22;1299;48.282;14.398;2024-01-30T14:45:54;0.40;99.90
2579;DHT22;1299;48.282;14.398;2024-01-30T14:51:44;0.30;99.90
2579;DHT22;1299;48.282;14.398;2024-01-30T14:54:19;0.30;99.90
2579;DHT22;1299;48.282;14.398;2024-01-30T14:56:50;0.50;99.90
2579;DHT22;1299;48.282;14.398;2024-01-30T15:02:45;0.40;99.90
2579;DHT22;1299;48.282;14.398;2024-01-30T15:08:36;0.50;99.90
2579;DHT22;1299;48.282;14.398;2024-01-30T15:14:35;0.50;99.90
2579;DHT22;1299;48.282;14.398;2024-01-30T15:20:16;0.30;99.90
2579;DHT22;1299;48.282;14.398;2024-01-30T15:23:20;0.20;99.90
2579;DHT22;1299;48.282;14.398;2024-01-30T15:25:55;0.30;99.90
2579;DHT22;1299;48.282;14.398;2024-01-30T15:28:34;0.20;99.90
2579;DHT22;1299;48.282;14.398;2024-01-30T15:31:04;0.30;99.90
2579;DHT22;1299;48.282;14.398;2024-01-30T15:33:34;0.20;99.90
2579;DHT22;1299;48.282;14.398;2024-01-30T15:36:11;0.30;99.90
2579;DHT22;1299;48.282;14.398;2024-01-30T15:42:02;0.10;99.90
2579;DHT22;1299;48.282;14.398;2024-01-30T15:44:39;0.10;99.90
2579;DHT22;1299;48.282;14.398;2024-01-30T15:47:19;0.20;99.90
2579;DHT22;1299;48.282;14.398;2024-01-30T15:53:27;0.60;99.90
2579;DHT22;1299;48.282;14.398;2024-01-30T16:01:08;1.00;99.90
2579;DHT22;1299;48.282;14.398;2024-01-30T16:06:58;1.30;99.90
2579;DHT22;1299;48.282;14.398;2024-01-30T16:09:33;1.40;99.90
2579;DHT22;1299;48.282;14.398;2024-01-30T16:12:17;1.40;99.90
2579;DHT22;1299;48.282;14.398;2024-01-30T16:14:46;1.50;99.90
2579;DHT22;1299;48.282;14.398;2024-01-30T16:19:52;1.60;99.90
2579;DHT22;1299;48.282;14.398;2024-01-30T16:22:19;1.60;99.90
2579;DHT22;1299;48.282;14.398;2024-01-30T16:24:48;1.70;99.90
2579;DHT22;1299;48.282;14.398;2024-01-30T16:27:15;1.80;99.90
2579;DHT22;1299;48.282;14.398;2024-01-30T16:29:42;1.70;99.90
2579;DHT22;1299;48.282;14.398;2024-01-30T16:32:18;1.70;99.90
2579;DHT22;1299;48.282;14.398;2024-01-30T16:34:45;1.60;99.90
2579;DHT22;1299;48.282;14.398;2024-01-30T16:37:26;1.80;99.90
2579;DHT22;1299;48.282;14.398;2024-01-30T16:39:53;1.80;99.90
2579;DHT22;1299;48.282;14.398;2024-01-30T16:42:42;1.60;99.90
2579;DHT22;1299;48.282;14.398;2024-01-30T16:48:32;1.60;99.90
2579;DHT22;1299;48.282;14.398;2024-01-30T16:51:23;1.40;99.90
2579;DHT22;1299;48.282;14.398;2024-01-30T17:03:53;1.90;99.90
2579;DHT22;1299;48.282;14.398;2024-01-30T17:09:33;1.90;99.90
2579;DHT22;1299;48.282;14.398;2024-01-30T17:12:00;1.80;99.90
2579;DHT22;1299;48.282;14.398;2024-01-30T17:14:34;1.80;99.90
2579;DHT22;1299;48.282;14.398;2024-01-30T17:17:06;1.90;99.90
2579;DHT22;1299;48.282;14.398;2024-01-30T17:19:44;1.80;99.90
2579;DHT22;1299;48.282;14.398;2024-01-30T17:22:11;1.80;99.90
2579;DHT22;1299;48.282;14.398;2024-01-30T17:24:38;1.80;99.90
2579;DHT22;1299;48.282;14.398;2024-01-30T17:27:05;1.80;99.90
2579;DHT22;1299;48.282;14.398;2024-01-30T17:29:45;1.80;99.90
2579;DHT22;1299;48.282;14.398;2024-01-30T17:32:12;1.60;99.90
2579;DHT22;1299;48.282;14.398;2024-01-30T17:34:45;1.40;99.90
2579;DHT22;1299;48.282;14.398;2024-01-30T17:37:12;1.30;99.90
2579;DHT22;1299;48.282;14.398;2024-01-30T17:39:49;1.50;99.90
2579;DHT22;1299;48.282;14.398;2024-01-30T17:42:35;1.50;99.90
2579;DHT22;1299;48.282;14.398;2024-01-30T17:45:02;1.40;99.90
2579;DHT22;1299;48.282;14.398;2024-01-30T17:47:35;1.40;99.90
2579;DHT22;1299;48.282;14.398;2024-01-30T17:50:06;1.40;99.90
2579;DHT22;1299;48.282;14.398;2024-01-30T17:52:41;1.40;99.90
2579;DHT22;1299;48.282;14.398;2024-01-30T17:55:08;1.50;99.90
2579;DHT22;1299;48.282;14.398;2024-01-30T17:57:49;1.40;99.90
2579;DHT22;1299;48.282;14.398;2024-01-30T18:00:19;1.50;99.90
2579;DHT22;1299;48.282;14.398;2024-01-30T18:02:48;1.50;99.90
2579;DHT22;1299;48.282;14.398;2024-01-30T18:05:30;1.50;99.90
2579;DHT22;1299;48.282;14.398;2024-01-30T18:07:57;1.50;99.90
2579;DHT22;1299;48.282;14.398;2024-01-30T18:10:31;1.50;99.90
2579;DHT22;1299;48.282;14.398;2024-01-30T18:13:06;1.60;99.90
2579;DHT22;1299;48.282;14.398;2024-01-30T18:15:35;1.60;99.90
2579;DHT22;1299;48.282;14.398;2024-01-30T18:18:22;1.60;99.90
2579;DHT22;1299;48.282;14.398;2024-01-30T18:20:52;1.70;99.90
2579;DHT22;1299;48.282;14.398;2024-01-30T18:23:31;1.60;99.90
2579;DHT22;1299;48.282;14.398;2024-01-30T18:25:59;1.50;99.90
2579;DHT22;1299;48.282;14.398;2024-01-30T18:28:45;1.30;99.90
2579;DHT22;1299;48.282;14.398;2024-01-30T18:31:12;1.50;99.90
2579;DHT22;1299;48.282;14.398;2024-01-30T18:33:45;1.80;99.90
2579;DHT22;1299;48.282;14.398;2024-01-30T18:36:26;2.00;99.90
2579;DHT22;1299;48.282;14.398;2024-01-30T18:38:59;2.20;99.90
2579;DHT22;1299;48.282;14.398;2024-01-30T18:41:29;1.90;99.90
2579;DHT22;1299;48.282;14.398;2024-01-30T18:44:21;1.70;99.90
2579;DHT22;1299;48.282;14.398;2024-01-30T18:47:07;1.50;99.90
2579;DHT22;1299;48.282;14.398;2024-01-30T18:50:03;1.30;99.90
2579;DHT22;1299;48.282;14.398;2024-01-30T18:52:32;1.20;99.90
2579;DHT22;1299;48.282;14.398;2024-01-30T18:55:00;1.20;99.90
2579;DHT22;1299;48.282;14.398;2024-01-30T19:00:34;1.00;99.90
2579;DHT22;1299;48.282;14.398;2024-01-30T19:03:07;1.10;99.90
2579;DHT22;1299;48.282;14.398;2024-01-30T19:08:55;1.30;99.90
2579;DHT22;1299;48.282;14.398;2024-01-30T19:11:22;1.40;99.90
2579;DHT22;1299;48.282;14.398;2024-01-30T19:16:26;1.40;99.90
2579;DHT22;1299;48.282;14.398;2024-01-30T19:18:54;1.50;99.90
2579;DHT22;1299;48.282;14.398;2024-01-30T19:21:58;1.40;99.90
2579;DHT22;1299;48.282;14.398;2024-01-30T19:24:34;1.40;99.90
2579;DHT22;1299;48.282;14.398;2024-01-30T19:27:21;1.40;99.90
2579;DHT22;1299;48.282;14.398;2024-01-30T19:29:49;1.50;99.90
2579;DHT22;1299;48.282;14.398;2024-01-30T19:43:30;1.40;99.90
2579;DHT22;1299;48.282;14.398;2024-01-30T19:46:06;1.50;99.90
2579;DHT22;1299;48.282;14.398;2024-01-30T19:48:55;1.50;99.90
2579;DHT22;1299;48.282;14.398;2024-01-30T19:51:24;1.50;99.90
2579;DHT22;1299;48.282;14.398;2024-01-30T19:59:25;1.60;99.90
2579;DHT22;1299;48.282;14.398;2024-01-30T20:01:56;1.60;99.90
2579;DHT22;1299;48.282;14.398;2024-01-30T20:04:30;1.60;99.90
2579;DHT22;1299;48.282;14.398;2024-01-30T20:07:07;1.60;99.90
2579;DHT22;1299;48.282;14.398;2024-01-30T20:09:34;1.60;99.90
2579;DHT22;1299;48.282;14.398;2024-01-30T20:12:01;1.70;99.90
2579;DHT22;1299;48.282;14.398;2024-01-30T20:14:44;1.70;99.90
2579;DHT22;1299;48.282;14.398;2024-01-30T20:17:17;1.70;99.90
2579;DHT22;1299;48.282;14.398;2024-01-30T20:19:56;1.70;99.90
2579;DHT22;1299;48.282;14.398;2024-01-30T20:23:00;1.70;99.90
2579;DHT22;1299;48.282;14.398;2024-01-30T20:28:52;1.70;99.90
2579;DHT22;1299;48.282;14.398;2024-01-30T20:34:46;1.70;99.90
2579;DHT22;1299;48.282;14.398;2024-01-30T20:37:30;1.70;99.90
2579;DHT22;1299;48.282;14.398;2024-01-30T20:43:27;1.70;99.90
2579;DHT22;1299;48.282;14.398;2024-01-30T20:49:22;1.70;99.90
2579;DHT22;1299;48.282;14.398;2024-01-30T20:55:21;1.70;99.90
2579;DHT22;1299;48.282;14.398;2024-01-30T21:04:31;1.80;99.90
2579;DHT22;1299;48.282;14.398;2024-01-30T21:10:30;1.80;99.90
2579;DHT22;1299;48.282;14.398;2024-01-30T21:19:40;1.80;99.90
2579;DHT22;1299;48.282;14.398;2024-01-30T21:25:31;1.80;99.90
2579;DHT22;1299;48.282;14.398;2024-01-30T21:28:19;1.80;99.90
2579;DHT22;1299;48.282;14.398;2024-01-30T21:34:20;1.90;99.90
2579;DHT22;1299;48.282;14.398;2024-01-30T22:50:12;0.70;99.90
2579;DHT22;1299;48.282;14.398;2024-01-30T22:52:42;0.70;99.90
2579;DHT22;1299;48.282;14.398;2024-01-30T22:55:37;0.90;99.90
2579;DHT22;1299;48.282;14.398;2024-01-30T22:58:23;0.40;99.90
2579;DHT22;1299;48.282;14.398;2024-01-30T23:01:01;0.70;99.90
2579;DHT22;1299;48.282;14.398;2024-01-30T23:03:33;0.80;99.90
2579;DHT22;1299;48.282;14.398;2024-01-30T23:06:16;1.00;99.90
2579;DHT22;1299;48.282;14.398;2024-01-30T23:08:51;1.10;99.90
2579;DHT22;1299;48.282;14.398;2024-01-30T23:11:33;0.90;99.90
2579;DHT22;1299;48.282;14.398;2024-01-30T23:14:02;0.50;99.90
2579;DHT22;1299;48.282;14.398;2024-01-30T23:26:46;0.60;99.90
2579;DHT22;1299;48.282;14.398;2024-01-30T23:29:49;0.40;99.90
2579;DHT22;1299;48.282;14.398;2024-01-30T23:35:45;0.40;99.90
2579;DHT22;1299;48.282;14.398;2024-01-30T23:38:38;0.50;99.90
2579;DHT22;1299;48.282;14.398;2024-01-30T23:41:16;0.30;99.90
2579;DHT22;1299;48.282;14.398;2024-01-30T23:47:10;0.40;99.90
2579;DHT22;1299;48.282;14.398;2024-01-30T23:53:32;0.70;99.90
